createdAt,value
2019-03-27T00:01:48.592Z,10.43
2019-03-27T00:04:16.818Z,9.93
2019-03-27T00:06:44.931Z,10.98
2019-03-27T00:09:13.049Z,10.07
2019-03-27T00:11:41.647Z,11.15
2019-03-27T00:14:09.772Z,11.83
2019-03-27T00:16:37.919Z,11.40
2019-03-27T00:19:06.048Z,11.33
2019-03-27T00:21:34.169Z,10.98
2019-03-27T00:24:02.303Z,12.23
2019-03-27T00:26:30.416Z,11.57
2019-03-27T00:28:58.551Z,11.63
2019-03-27T00:31:26.678Z,11.97
2019-03-27T00:33:54.827Z,12.00
2019-03-27T00:36:23.706Z,11.63
2019-03-27T00:38:51.910Z,11.23
2019-03-27T00:41:20.049Z,11.10
2019-03-27T00:43:48.161Z,12.07
2019-03-27T00:46:16.321Z,12.50
2019-03-27T00:48:44.432Z,12.50
2019-03-27T00:51:12.975Z,11.77
2019-03-27T00:53:46.979Z,12.13
2019-03-27T00:56:15.139Z,12.70
2019-03-27T00:58:43.266Z,12.03
2019-03-27T01:01:13.004Z,12.33
2019-03-27T01:03:41.235Z,11.37
2019-03-27T01:06:09.530Z,11.47
2019-03-27T01:08:37.841Z,12.68
2019-03-27T01:11:12.016Z,13.83
2019-03-27T01:13:40.309Z,12.55
2019-03-27T01:16:08.506Z,12.43
2019-03-27T01:18:36.635Z,12.77
2019-03-27T01:21:04.842Z,12.77
2019-03-27T01:23:33.036Z,13.23
2019-03-27T01:26:01.169Z,13.07
2019-03-27T01:28:29.356Z,12.13
2019-03-27T01:30:57.505Z,14.00
2019-03-27T01:33:25.635Z,13.07
2019-03-27T01:35:53.861Z,14.43
2019-03-27T01:38:22.047Z,14.20
2019-03-27T01:40:50.238Z,14.97
2019-03-27T01:43:18.377Z,15.53
2019-03-27T01:45:53.011Z,14.63
2019-03-27T01:48:16.484Z,14.63
2019-03-27T01:50:44.692Z,14.77
2019-03-27T01:53:12.880Z,15.63
2019-03-27T01:55:41.037Z,15.03
2019-03-27T01:58:09.543Z,14.28
2019-03-27T02:00:37.740Z,14.80
2019-03-27T02:03:05.934Z,15.67
2019-03-27T02:05:34.071Z,15.53
2019-03-27T02:08:02.315Z,17.13
2019-03-27T02:10:30.512Z,16.40
2019-03-27T02:12:58.683Z,16.07
2019-03-27T02:15:27.239Z,18.47
2019-03-27T02:17:55.443Z,17.77
2019-03-27T02:20:23.563Z,17.50
2019-03-27T02:22:51.749Z,18.75
2019-03-27T02:25:19.899Z,18.67
2019-03-27T02:27:48.027Z,18.23
2019-03-27T02:30:16.156Z,20.10
2019-03-27T02:32:44.905Z,19.82
2019-03-27T02:35:13.098Z,17.77
2019-03-27T02:37:41.249Z,16.37
2019-03-27T02:40:09.450Z,19.47
2019-03-27T02:42:37.563Z,18.57
2019-03-27T02:45:06.370Z,20.07
2019-03-27T02:47:34.567Z,18.30
2019-03-27T02:50:02.850Z,19.77
2019-03-27T02:52:30.976Z,18.13
2019-03-27T02:54:59.412Z,17.95
2019-03-27T02:57:27.535Z,17.63
2019-03-27T02:59:55.670Z,20.10
2019-03-27T03:02:23.864Z,19.40
2019-03-27T03:04:52.080Z,16.87
2019-03-27T03:07:20.268Z,16.40
2019-03-27T03:09:48.587Z,19.57
2019-03-27T03:12:17.456Z,18.83
2019-03-27T03:14:45.633Z,18.63
2019-03-27T03:17:13.770Z,19.03
2019-03-27T03:19:41.933Z,20.17
2019-03-27T03:22:10.091Z,19.03
2019-03-27T03:24:38.217Z,19.02
2019-03-27T03:27:06.356Z,21.37
2019-03-27T03:29:34.470Z,19.57
2019-03-27T03:32:02.717Z,19.30
2019-03-27T03:34:30.920Z,19.00
2019-03-27T03:36:59.066Z,19.60
2019-03-27T03:39:27.287Z,19.47
2019-03-27T03:41:55.431Z,20.08
2019-03-27T03:44:23.548Z,20.07
2019-03-27T03:46:59.606Z,17.80
2019-03-27T03:49:21.609Z,20.53
2019-03-27T03:51:50.475Z,20.17
2019-03-27T03:54:18.670Z,19.90
2019-03-27T03:56:48.156Z,18.93
2019-03-27T03:59:16.294Z,20.45
2019-03-27T04:01:45.176Z,20.77
2019-03-27T04:04:14.440Z,22.98
2019-03-27T04:06:42.626Z,20.60
2019-03-27T04:09:10.790Z,20.13
2019-03-27T04:11:38.944Z,21.10
2019-03-27T04:14:07.202Z,20.63
2019-03-27T04:16:35.314Z,21.73
2019-03-27T04:19:03.459Z,19.70
2019-03-27T04:21:31.588Z,20.57
2019-03-27T04:23:59.734Z,20.20
2019-03-27T04:26:28.408Z,21.95
2019-03-27T04:28:56.558Z,18.77
2019-03-27T04:31:25.479Z,22.03
2019-03-27T04:33:53.630Z,20.48
2019-03-27T04:36:29.155Z,22.13
2019-03-27T04:38:57.328Z,22.17
2019-03-27T04:41:25.593Z,22.63
2019-03-27T04:43:53.805Z,21.67
2019-03-27T04:46:21.986Z,23.40
2019-03-27T04:48:50.153Z,23.27
2019-03-27T04:51:18.427Z,23.97
2019-03-27T04:53:47.361Z,23.23
2019-03-27T04:56:15.593Z,22.43
2019-03-27T04:58:43.775Z,25.07
2019-03-27T05:01:11.903Z,23.57
2019-03-27T05:03:40.102Z,24.40
2019-03-27T05:06:08.387Z,24.00
2019-03-27T05:08:36.552Z,23.37
2019-03-27T05:11:04.847Z,27.90
2019-03-27T05:13:33.057Z,25.80
2019-03-27T05:16:01.177Z,24.40
2019-03-27T05:18:29.317Z,25.70
2019-03-27T05:20:57.471Z,24.87
2019-03-27T05:23:25.628Z,27.05
2019-03-27T05:26:13.155Z,26.33
2019-03-27T05:28:41.328Z,24.20
2019-03-27T05:31:12.384Z,26.23
2019-03-27T05:33:40.541Z,26.77
2019-03-27T05:36:08.693Z,26.00
2019-03-27T05:38:36.817Z,26.02
2019-03-27T05:41:05.307Z,27.03
2019-03-27T05:43:33.580Z,24.20
2019-03-27T05:46:01.756Z,26.67
2019-03-27T05:48:29.891Z,26.73
2019-03-27T05:50:58.066Z,26.85
2019-03-27T05:53:26.246Z,27.20
2019-03-27T05:55:54.371Z,25.92
2019-03-27T05:58:22.504Z,27.43
2019-03-27T06:00:50.646Z,26.13
2019-03-27T06:03:18.991Z,25.53
2019-03-27T06:05:47.162Z,26.73
2019-03-27T06:08:15.295Z,26.00
2019-03-27T06:10:43.447Z,25.67
2019-03-27T06:13:11.606Z,25.88
2019-03-27T06:15:39.738Z,26.50
2019-03-27T06:18:13.348Z,26.23
2019-03-27T06:20:38.469Z,25.77
2019-03-27T06:23:06.638Z,26.03
2019-03-27T06:25:34.757Z,28.45
2019-03-27T06:28:02.899Z,25.70
2019-03-27T06:30:31.060Z,28.27
2019-03-27T06:32:59.256Z,26.30
2019-03-27T06:35:27.399Z,27.50
2019-03-27T06:37:55.527Z,27.77
2019-03-27T06:40:23.675Z,30.33
2019-03-27T06:42:51.896Z,29.67
2019-03-27T06:45:20.107Z,27.40
2019-03-27T06:47:48.276Z,30.03
2019-03-27T06:50:16.481Z,28.40
2019-03-27T06:52:44.614Z,29.27
2019-03-27T06:55:12.815Z,27.00
2019-03-27T06:57:40.966Z,26.90
2019-03-27T07:00:09.825Z,28.50
2019-03-27T07:02:38.063Z,27.57
2019-03-27T07:05:06.525Z,27.57
2019-03-27T07:07:34.658Z,30.07
2019-03-27T07:10:03.543Z,26.57
2019-03-27T07:12:31.677Z,26.77
2019-03-27T07:15:10.122Z,27.57
2019-03-27T07:17:29.651Z,28.87
2019-03-27T07:19:57.774Z,26.20
2019-03-27T07:22:25.925Z,28.23
2019-03-27T07:24:54.065Z,25.53
2019-03-27T07:27:22.245Z,25.10
2019-03-27T07:29:50.483Z,25.47
2019-03-27T07:32:18.699Z,25.10
2019-03-27T07:34:46.869Z,22.33
2019-03-27T07:37:15.770Z,22.37
2019-03-27T07:39:43.894Z,20.12
2019-03-27T07:42:12.075Z,21.47
2019-03-27T07:44:40.244Z,21.23
2019-03-27T07:47:08.464Z,23.60
2019-03-27T07:49:36.673Z,22.37
2019-03-27T07:52:09.748Z,23.87
2019-03-27T07:54:37.926Z,17.65
2019-03-27T07:57:06.067Z,18.50
2019-03-27T07:59:34.357Z,19.50
2019-03-27T08:02:02.521Z,18.75
2019-03-27T08:04:30.659Z,19.17
2019-03-27T08:06:58.891Z,19.92
2019-03-27T08:09:27.025Z,21.90
2019-03-27T08:11:55.218Z,20.20
2019-03-27T08:14:23.354Z,21.97
2019-03-27T08:16:51.494Z,19.37
2019-03-27T08:19:19.638Z,19.80
2019-03-27T08:21:47.760Z,18.90
2019-03-27T08:24:15.966Z,19.50
2019-03-27T08:26:44.150Z,18.83
2019-03-27T08:29:12.295Z,17.23
2019-03-27T08:31:40.448Z,17.70
2019-03-27T08:34:08.575Z,18.48
2019-03-27T08:36:36.785Z,17.00
2019-03-27T08:39:06.481Z,17.87
2019-03-27T08:41:34.589Z,17.23
2019-03-27T08:44:02.793Z,14.87
2019-03-27T08:46:31.009Z,13.13
2019-03-27T08:48:59.158Z,14.50
2019-03-27T08:51:27.291Z,18.00
2019-03-27T08:53:55.405Z,18.17
2019-03-27T08:56:24.459Z,25.07
2019-03-27T08:58:52.609Z,26.60
2019-03-27T09:01:20.725Z,26.90
2019-03-27T09:03:48.837Z,27.03
2019-03-27T09:06:16.977Z,23.13
2019-03-27T09:08:45.348Z,21.93
2019-03-27T09:11:13.556Z,21.97
2019-03-27T09:13:42.482Z,24.00
2019-03-27T09:16:10.704Z,21.87
2019-03-27T09:18:38.870Z,22.80
2019-03-27T09:21:07.096Z,19.55
2019-03-27T09:23:35.258Z,18.60
2019-03-27T09:26:03.368Z,17.83
2019-03-27T09:28:31.536Z,13.83
2019-03-27T09:30:59.650Z,12.07
2019-03-27T09:33:27.873Z,12.53
2019-03-27T09:35:56.595Z,11.28
2019-03-27T09:38:24.763Z,10.63
2019-03-27T09:40:52.904Z,8.90
2019-03-27T09:43:21.114Z,7.10
2019-03-27T09:45:49.240Z,8.58
2019-03-27T09:48:17.419Z,8.80
2019-03-27T09:50:45.686Z,9.27
2019-03-27T09:53:13.916Z,9.30
2019-03-27T09:55:42.127Z,9.90
2019-03-27T09:58:10.270Z,7.17
2019-03-27T10:00:45.756Z,7.50
2019-03-27T10:03:13.969Z,7.30
2019-03-27T10:05:42.212Z,10.60
2019-03-27T10:08:10.360Z,10.78
2019-03-27T10:10:38.545Z,11.00
2019-03-27T10:13:06.700Z,12.27
2019-03-27T10:15:35.009Z,8.70
2019-03-27T10:18:03.275Z,6.97
2019-03-27T10:20:31.597Z,6.97
2019-03-27T10:22:59.917Z,6.53
2019-03-27T10:25:28.115Z,5.87
2019-03-27T10:27:56.342Z,7.47
2019-03-27T10:30:24.456Z,5.33
2019-03-27T10:32:52.619Z,6.00
2019-03-27T10:35:20.768Z,6.73
2019-03-27T10:37:48.897Z,6.57
2019-03-27T10:40:17.052Z,13.57
2019-03-27T10:42:45.267Z,7.57
2019-03-27T10:45:13.452Z,6.97
2019-03-27T10:47:41.580Z,6.80
2019-03-27T10:50:17.390Z,7.97
2019-03-27T10:52:39.746Z,7.80
2019-03-27T10:55:08.097Z,7.70
2019-03-27T10:57:36.266Z,5.43
2019-03-27T11:00:08.911Z,6.30
2019-03-27T11:02:37.042Z,7.10
2019-03-27T11:05:06.323Z,5.83
2019-03-27T11:07:34.542Z,5.73
2019-03-27T11:10:02.655Z,5.33
2019-03-27T11:12:30.788Z,5.30
2019-03-27T11:14:58.917Z,5.60
2019-03-27T11:17:27.863Z,5.93
2019-03-27T11:19:56.067Z,5.30
2019-03-27T11:22:24.278Z,6.83
2019-03-27T11:24:52.520Z,6.03
2019-03-27T11:27:20.632Z,6.27
2019-03-27T11:29:48.755Z,6.33
2019-03-27T11:32:16.947Z,6.00
2019-03-27T11:34:45.100Z,5.83
2019-03-27T11:37:13.309Z,6.20
2019-03-27T11:39:41.713Z,5.27
2019-03-27T11:42:09.890Z,6.35
2019-03-27T11:44:38.045Z,4.90
2019-03-27T11:47:06.277Z,4.33
2019-03-27T11:49:34.441Z,5.20
2019-03-27T11:52:02.546Z,4.62
2019-03-27T11:54:30.704Z,5.43
2019-03-27T11:56:59.616Z,4.77
2019-03-27T11:59:27.784Z,4.30
2019-03-27T12:01:56.040Z,4.97
2019-03-27T12:04:24.219Z,5.90
2019-03-27T12:06:52.458Z,4.63
2019-03-27T12:09:20.578Z,4.33
2019-03-27T12:11:48.707Z,5.13
2019-03-27T12:14:16.896Z,5.00
2019-03-27T12:16:45.023Z,5.53
2019-03-27T12:19:13.198Z,4.37
2019-03-27T12:21:41.434Z,4.37
2019-03-27T12:26:42.937Z,3.90
2019-03-27T12:29:11.135Z,4.87
2019-03-27T12:31:40.037Z,4.53
2019-03-27T12:34:08.229Z,5.87
2019-03-27T12:36:36.366Z,3.73
2019-03-27T12:39:05.859Z,3.73
2019-03-27T12:41:33.978Z,4.00
2019-03-27T12:44:02.741Z,3.63
2019-03-27T12:46:31.077Z,3.57
2019-03-27T12:48:59.208Z,3.73
2019-03-27T12:51:27.404Z,4.70
2019-03-27T13:16:21.045Z,4.73
2019-03-27T13:18:49.186Z,4.70
2019-03-27T13:21:26.280Z,5.30
2019-03-27T13:23:47.255Z,4.30
2019-03-27T13:26:15.460Z,4.50
2019-03-27T13:28:49.105Z,4.07
2019-03-27T13:31:13.509Z,4.47
2019-03-27T13:33:41.647Z,4.10
2019-03-27T13:36:09.901Z,5.33
2019-03-27T13:38:37.982Z,4.80
2019-03-27T13:41:06.159Z,5.80
2019-03-27T13:43:34.317Z,4.53
2019-03-27T13:46:02.548Z,4.30
2019-03-27T13:48:30.714Z,5.17
2019-03-27T13:50:58.914Z,5.58
2019-03-27T13:53:27.045Z,3.63
2019-03-27T13:55:55.350Z,4.80
2019-03-27T13:58:23.907Z,4.63
2019-03-27T14:00:52.091Z,5.00
2019-03-27T14:03:20.338Z,4.17
2019-03-27T14:05:48.501Z,4.50
2019-03-27T14:08:16.730Z,4.60
2019-03-27T14:10:44.949Z,4.57
2019-03-27T14:13:13.110Z,4.20
2019-03-27T14:15:41.371Z,5.20
2019-03-27T14:18:09.588Z,4.55
2019-03-27T14:20:45.581Z,4.60
2019-03-27T14:23:13.800Z,4.80
2019-03-27T14:25:43.048Z,4.77
2019-03-27T14:28:11.276Z,4.97
2019-03-27T14:30:43.995Z,4.53
2019-03-27T14:33:12.123Z,4.27
2019-03-27T14:35:40.237Z,4.57
2019-03-27T14:38:08.376Z,4.60
2019-03-27T14:40:36.569Z,4.97
2019-03-27T14:43:04.761Z,5.13
2019-03-27T14:45:32.886Z,5.53
2019-03-27T14:48:01.085Z,4.67
2019-03-27T14:50:29.237Z,5.10
2019-03-27T14:52:57.382Z,5.03
2019-03-27T14:55:25.567Z,5.03
2019-03-27T14:57:53.701Z,6.08
2019-03-27T15:00:21.892Z,5.73
2019-03-27T15:02:50.426Z,5.10
2019-03-27T15:05:18.665Z,5.20
2019-03-27T15:07:46.902Z,4.97
2019-03-27T15:10:15.139Z,5.30
2019-03-27T15:12:43.247Z,5.60
2019-03-27T15:15:11.859Z,4.85
2019-03-27T15:17:40.008Z,4.70
2019-03-27T15:20:08.599Z,5.17
2019-03-27T15:22:36.862Z,4.97
2019-03-27T15:25:05.436Z,5.50
2019-03-27T15:27:33.639Z,5.53
2019-03-27T15:30:01.877Z,4.83
2019-03-27T15:32:30.353Z,6.00
2019-03-27T15:35:01.628Z,4.70
2019-03-27T15:37:29.792Z,5.35
2019-03-27T15:39:57.893Z,4.80
2019-03-27T15:42:26.389Z,5.05
2019-03-27T15:44:54.511Z,4.63
2019-03-27T15:47:22.724Z,5.27
2019-03-27T15:49:50.940Z,4.53
2019-03-27T15:52:19.358Z,20.97
2019-03-27T15:54:47.524Z,9.10
2019-03-27T15:57:15.797Z,5.30
2019-03-27T15:59:44.043Z,5.43
2019-03-27T16:02:12.623Z,7.70
2019-03-27T16:04:40.759Z,5.63
2019-03-27T16:07:08.932Z,5.58
2019-03-27T16:09:37.413Z,4.87
2019-03-27T16:12:05.513Z,5.23
2019-03-27T16:14:33.947Z,5.20
2019-03-27T16:17:13.338Z,5.53
2019-03-27T16:19:34.194Z,4.90
2019-03-27T16:22:03.129Z,6.07
2019-03-27T16:24:31.269Z,6.50
2019-03-27T16:27:04.660Z,5.67
2019-03-27T16:29:29.241Z,6.27
2019-03-27T16:31:57.363Z,5.77
2019-03-27T16:34:25.508Z,6.00
2019-03-27T16:36:54.300Z,6.20
2019-03-27T16:39:22.634Z,6.08
2019-03-27T16:41:53.465Z,5.87
2019-03-27T16:44:21.623Z,6.20
2019-03-27T16:46:49.774Z,6.97
2019-03-27T16:49:17.965Z,5.90
2019-03-27T16:51:46.105Z,5.53
2019-03-27T17:01:22.885Z,6.77
2019-03-27T17:03:50.986Z,6.13
2019-03-27T17:06:19.258Z,6.00
2019-03-27T17:08:47.355Z,6.03
2019-03-27T17:11:15.467Z,6.30
2019-03-27T17:13:43.611Z,6.80
2019-03-27T17:16:11.755Z,6.93
2019-03-27T17:18:41.398Z,6.20
2019-03-27T17:21:09.575Z,6.57
2019-03-27T17:23:37.728Z,6.83
2019-03-27T17:26:05.978Z,6.97
2019-03-27T17:28:34.168Z,6.20
2019-03-27T17:31:05.534Z,6.80
2019-03-27T17:33:33.846Z,6.77
2019-03-27T17:36:02.020Z,6.97
2019-03-27T17:38:30.276Z,7.00
2019-03-27T17:40:58.412Z,7.37
2019-03-27T17:43:26.653Z,8.50
2019-03-27T17:45:54.886Z,8.50
2019-03-27T17:48:23.028Z,8.20
2019-03-27T17:50:51.202Z,8.40
2019-03-27T17:53:31.008Z,7.30
2019-03-27T17:55:49.556Z,8.83
2019-03-27T17:58:19.922Z,8.23
2019-03-27T18:00:49.596Z,8.60
2019-03-27T18:03:18.954Z,8.03
2019-03-27T18:05:47.255Z,8.13
2019-03-27T18:08:17.041Z,8.37
2019-03-27T18:10:45.256Z,8.53
2019-03-27T18:13:13.357Z,8.27
2019-03-27T18:15:42.247Z,8.30
2019-03-27T18:18:10.364Z,8.13
2019-03-27T18:20:38.550Z,8.07
2019-03-27T18:23:06.756Z,8.43
2019-03-27T18:25:36.442Z,7.87
2019-03-27T18:28:04.756Z,10.05
2019-03-27T18:30:44.759Z,8.97
2019-03-27T18:33:13.029Z,9.13
2019-03-27T18:35:41.117Z,9.30
2019-03-27T18:38:09.250Z,9.20
2019-03-27T18:40:37.457Z,8.67
2019-03-27T18:43:07.770Z,8.98
2019-03-27T18:45:35.892Z,9.17
2019-03-27T18:48:04.289Z,9.10
2019-03-27T18:50:35.263Z,9.87
2019-03-27T18:53:03.649Z,8.77
2019-03-27T18:55:31.812Z,8.45
2019-03-27T18:58:00.857Z,9.37
2019-03-27T19:00:29.276Z,8.53
2019-03-27T19:02:57.624Z,8.83
2019-03-27T19:05:25.819Z,9.33
2019-03-27T19:07:54.008Z,9.20
2019-03-27T19:10:22.221Z,9.50
2019-03-27T19:12:52.881Z,8.90
2019-03-27T19:15:21.137Z,9.47
2019-03-27T19:17:49.516Z,9.70
2019-03-27T19:20:17.803Z,9.10
2019-03-27T19:22:45.946Z,10.83
2019-03-27T19:25:14.129Z,8.87
2019-03-27T19:27:42.245Z,11.87
2019-03-27T19:30:10.745Z,10.77
2019-03-27T19:32:38.952Z,10.53
2019-03-27T19:35:07.465Z,11.13
2019-03-27T19:37:35.636Z,11.97
2019-03-27T19:40:05.134Z,13.20
2019-03-27T19:42:33.353Z,14.20
2019-03-27T19:45:01.704Z,15.60
2019-03-27T19:47:29.901Z,14.20
2019-03-27T19:49:58.853Z,14.50
2019-03-27T19:52:26.968Z,13.13
2019-03-27T19:54:55.204Z,12.17
2019-03-27T19:57:23.356Z,12.63
2019-03-27T19:59:51.506Z,13.77
2019-03-27T20:02:19.736Z,13.23
2019-03-27T20:04:48.031Z,13.27
2019-03-27T20:07:18.389Z,13.40
2019-03-27T20:09:46.104Z,15.27
2019-03-27T20:12:14.360Z,14.20
2019-03-27T20:14:42.769Z,12.57
2019-03-27T20:17:11.067Z,12.17
2019-03-27T20:19:39.289Z,12.25
2019-03-27T20:22:08.794Z,14.27
2019-03-27T20:24:41.188Z,14.73
2019-03-27T20:27:06.917Z,13.20
2019-03-27T20:29:35.722Z,13.95
2019-03-27T20:32:04.386Z,12.43
2019-03-27T20:34:32.516Z,12.07
2019-03-27T20:37:00.687Z,12.87
2019-03-27T20:39:28.908Z,12.37
2019-03-27T20:41:57.342Z,12.83
2019-03-27T20:44:25.620Z,13.03
2019-03-27T20:46:54.505Z,13.13
2019-03-27T20:49:22.628Z,13.43
2019-03-27T20:51:50.752Z,13.50
2019-03-27T20:54:19.000Z,12.60
2019-03-27T20:56:47.152Z,13.97
2019-03-27T20:59:18.218Z,13.63
2019-03-27T21:01:45.304Z,13.10
2019-03-27T21:04:15.052Z,14.40
2019-03-27T21:06:43.325Z,14.07
2019-03-27T21:09:13.232Z,13.63
2019-03-27T21:11:43.094Z,14.43
2019-03-27T21:14:11.280Z,18.57
2019-03-27T21:16:39.471Z,14.30
2019-03-27T21:19:07.576Z,13.67
2019-03-27T21:21:35.742Z,13.93
2019-03-27T21:24:03.972Z,14.70
2019-03-27T21:26:32.850Z,15.40
2019-03-27T21:29:01.033Z,14.40
2019-03-27T21:31:29.174Z,14.57
2019-03-27T21:33:57.802Z,14.93
2019-03-27T21:36:26.143Z,19.43
2019-03-27T21:38:55.049Z,15.80
2019-03-27T21:41:23.160Z,14.97
2019-03-27T21:43:51.299Z,14.30
2019-03-27T21:46:19.521Z,14.87
2019-03-27T21:48:47.908Z,14.47
2019-03-27T21:51:18.836Z,14.80
2019-03-27T21:53:50.612Z,16.27
2019-03-27T21:56:17.020Z,21.50
2019-03-27T21:58:45.181Z,15.80
2019-03-27T22:01:13.359Z,14.67
2019-03-27T22:03:41.598Z,13.62
2019-03-27T22:06:10.509Z,14.47
2019-03-27T22:08:38.720Z,13.17
2019-03-27T22:11:07.629Z,13.20
2019-03-27T22:13:35.846Z,14.50
2019-03-27T22:16:04.123Z,12.90
2019-03-27T22:18:32.260Z,13.03
2019-03-27T22:21:01.739Z,12.40
2019-03-27T22:23:29.840Z,12.40
2019-03-27T22:25:57.987Z,12.23
2019-03-27T22:28:26.175Z,12.73
2019-03-27T22:30:56.451Z,12.10
2019-03-27T22:33:24.576Z,13.13
2019-03-27T22:35:52.704Z,11.77
2019-03-27T22:38:20.886Z,12.60
2019-03-27T22:40:49.114Z,11.70
2019-03-27T22:43:17.333Z,10.30
2019-03-27T22:45:45.600Z,11.68
2019-03-27T22:48:13.798Z,11.57
2019-03-27T22:50:41.992Z,11.03
2019-03-27T22:53:10.116Z,11.40
2019-03-27T22:55:49.112Z,11.67
2019-03-27T22:58:08.294Z,10.13
2019-03-27T23:00:38.136Z,10.17
2019-03-27T23:03:17.659Z,10.70
2019-03-27T23:05:36.137Z,11.63
2019-03-27T23:08:04.470Z,10.27
2019-03-27T23:10:32.613Z,11.23
2019-03-27T23:13:00.851Z,9.97
2019-03-27T23:15:29.077Z,11.30
2019-03-27T23:17:57.272Z,10.60
2019-03-27T23:20:25.390Z,10.17
2019-03-27T23:22:53.551Z,11.83
2019-03-27T23:25:21.673Z,11.15
2019-03-27T23:27:49.788Z,11.13
2019-03-27T23:30:19.737Z,12.63
2019-03-27T23:32:47.927Z,11.67
2019-03-27T23:35:16.049Z,10.70
2019-03-27T23:37:44.430Z,10.83
2019-03-27T23:40:12.680Z,10.63
2019-03-27T23:42:40.863Z,11.03
2019-03-27T23:45:09.090Z,12.00
2019-03-27T23:47:37.415Z,11.38
2019-03-27T23:50:07.040Z,10.23
2019-03-27T23:52:35.961Z,11.53
2019-03-27T23:55:04.959Z,10.73
2019-03-27T23:57:33.172Z,10.37
